Time;durP1;ratioP1;P1;durP2;ratioP2;P2;SDS_P1;SDS_P2;PMS_P1;PMS_P2;Temp;Humidity;BMP_temperature;BMP_pressure;BME280_temperature;BME280_humidity;BME280_pressure;Samples;Min_cycle;Max_cycle;Signal;HPM_P1;HPM_P2
2022/12/25 00:00:31;;;;;;;3.22;0.90;;;13.70;74.10;;;;;;2528059;53;21033;-84
2022/12/25 00:02:59;;;;;;;2.58;1.00;;;13.70;74.10;;;;;;2294840;54;21053;-83
2022/12/25 00:05:25;;;;;;;1.62;0.65;;;13.70;74.10;;;;;;2528352;53;21021;-85
2022/12/25 00:07:52;;;;;;;1.50;0.57;;;13.70;74.20;;;;;;2295216;53;20953;-86
2022/12/25 00:10:19;;;;;;;2.83;0.68;;;13.70;74.20;;;;;;2527400;53;21001;-86
2022/12/25 00:12:45;;;;;;;2.10;0.77;;;13.70;74.30;;;;;;2528989;53;21344;-85
2022/12/25 00:15:11;;;;;;;2.28;0.80;;;13.70;74.30;;;;;;2528656;53;21074;-87
2022/12/25 00:17:38;;;;;;;3.12;0.68;;;13.70;74.40;;;;;;2528189;53;21361;-83
2022/12/25 00:20:05;;;;;;;2.25;0.77;;;13.70;74.40;;;;;;2294010;53;21621;-85
2022/12/25 00:22:31;;;;;;;2.47;0.90;;;13.70;74.50;;;;;;2549607;53;21495;-83
2022/12/25 00:24:57;;;;;;;2.92;1.00;;;13.80;74.50;;;;;;2294328;53;20997;-83
2022/12/25 00:27:24;;;;;;;3.28;0.60;;;13.80;74.50;;;;;;2531466;53;20969;-88
2022/12/25 00:29:50;;;;;;;2.40;0.70;;;13.80;74.60;;;;;;2319688;53;21162;-84
2022/12/25 00:32:16;;;;;;;3.87;1.30;;;13.80;74.60;;;;;;2297282;53;21285;-88
2022/12/25 00:34:42;;;;;;;3.25;1.50;;;13.80;74.60;;;;;;2295543;54;21034;-83
2022/12/25 00:37:09;;;;;;;3.00;1.33;;;13.70;74.50;;;;;;2528967;53;20933;-85
2022/12/25 00:39:36;;;;;;;3.22;1.30;;;13.80;74.60;;;;;;2547594;53;21001;-84
2022/12/25 00:42:18;;;;;;;4.55;1.70;;;13.80;74.60;;;;;;2529449;53;22080;-84
2022/12/25 00:44:47;;;;;;;3.53;1.90;;;13.80;74.60;;;;;;2296542;53;21013;-82
2022/12/25 00:47:14;;;;;;;3.60;1.73;;;13.80;74.50;;;;;;2528411;53;21054;-82
2022/12/25 00:49:40;;;;;;;4.15;1.75;;;13.80;74.60;;;;;;2528887;53;21018;-81
2022/12/25 00:52:06;;;;;;;7.00;2.70;;;13.80;74.70;;;;;;2295461;53;21260;-84
2022/12/25 00:54:32;;;;;;;8.02;3.90;;;13.80;74.70;;;;;;2529341;53;20945;-83
2022/12/25 00:56:59;;;;;;;6.50;2.62;;;13.80;74.60;;;;;;2528630;53;21202;-81
2022/12/25 00:59:25;;;;;;;4.10;1.60;;;13.90;74.60;;;;;;2303404;54;21003;-83
2022/12/25 01:01:51;;;;;;;4.18;1.67;;;13.90;74.30;;;;;;2561371;53;21094;-87
2022/12/25 01:04:18;;;;;;;3.87;1.70;;;13.80;74.20;;;;;;2560387;53;20959;-84
2022/12/25 01:06:45;;;;;;;3.40;1.55;;;13.80;74.10;;;;;;2561213;53;20967;-82
2022/12/25 01:11:56;;;;;;;4.15;1.77;;;13.80;74.10;;;;;;2324343;54;21700;-83
2022/12/25 01:14:22;;;;;;;3.85;1.50;;;13.70;73.90;;;;;;2561806;53;21032;-87
2022/12/25 01:16:48;;;;;;;3.42;1.35;;;13.80;74.00;;;;;;2562244;53;20971;-86
2022/12/25 01:19:15;;;;;;;2.95;1.27;;;13.80;74.10;;;;;;2322006;54;20955;-83
2022/12/25 01:21:42;;;;;;;3.08;1.27;;;13.90;74.20;;;;;;2560887;53;20971;-83
2022/12/25 01:24:08;;;;;;;2.78;1.20;;;13.80;74.20;;;;;;2560051;53;21638;-82
2022/12/25 01:26:36;;;;;;;2.60;1.12;;;13.80;74.20;;;;;;2528418;54;21012;-83
2022/12/25 01:29:03;;;;;;;4.10;1.37;;;13.70;74.20;;;;;;2526685;54;20968;-82
2022/12/25 01:31:30;;;;;;;2.70;1.30;;;13.80;74.30;;;;;;2527285;54;23429;-84
2022/12/25 01:33:57;;;;;;;5.90;1.25;;;13.80;74.30;;;;;;2526708;54;21176;-83
2022/12/25 01:36:24;;;;;;;3.03;1.40;;;13.80;74.30;;;;;;2293764;55;21516;-83
2022/12/25 01:38:51;;;;;;;2.67;1.10;;;13.80;74.60;;;;;;2526597;54;20969;-85
2022/12/25 01:41:19;;;;;;;3.42;1.25;;;13.80;74.40;;;;;;2526307;54;20952;-85
2022/12/25 01:43:57;;;;;;;3.10;1.20;;;13.80;74.40;;;;;;2526787;54;21023;-85
2022/12/25 01:46:23;;;;;;;3.03;1.30;;;13.80;74.20;;;;;;2523474;54;20972;-85
2022/12/25 01:48:50;;;;;;;3.62;1.40;;;13.80;74.40;;;;;;2527561;54;21687;-86
2022/12/25 01:51:38;;;;;;;4.40;1.60;;;13.80;74.40;;;;;;2527091;54;21853;-82
2022/12/25 01:54:10;;;;;;;3.67;1.40;;;13.90;74.30;;;;;;2527332;54;20987;-84
2022/12/25 01:56:36;;;;;;;2.85;1.20;;;13.80;74.40;;;;;;2321430;53;21030;-81
2022/12/25 01:59:02;;;;;;;4.37;1.62;;;13.70;74.10;;;;;;2319999;53;21023;-82
2022/12/25 02:01:29;;;;;;;2.58;1.15;;;13.80;74.20;;;;;;2559422;53;21030;-82
2022/12/25 02:03:58;;;;;;;4.90;1.83;;;13.80;74.30;;;;;;2560222;53;20971;-83
2022/12/25 02:06:25;;;;;;;5.70;1.70;;;13.80;74.10;;;;;;2560750;53;21030;-82
2022/12/25 02:08:52;;;;;;;4.20;1.75;;;13.70;74.10;;;;;;2560873;53;20959;-82
2022/12/25 02:14:03;;;;;;;3.75;1.52;;;13.80;74.30;;;;;;2561555;53;20959;-83
2022/12/25 02:16:31;;;;;;;3.72;1.75;;;13.80;74.30;;;;;;2561297;53;21745;-83
2022/12/25 02:19:05;;;;;;;3.45;1.58;;;13.70;74.20;;;;;;2561363;53;21023;-83
2022/12/25 02:22:27;;;;;;;3.25;1.50;;;13.80;74.20;;;;;;2561297;53;21010;-85
2022/12/25 02:24:56;;;;;;;;;;;13.80;73.80;;;;;;2535247;53;21159;-84
2022/12/25 02:27:48;;;;;;;3.58;1.67;;;13.80;73.30;;;;;;2561168;53;20423;-83
2022/12/25 02:30:15;;;;;;;3.75;1.37;;;13.80;73.70;;;;;;2561498;53;21075;-84
2022/12/25 02:34:16;;;;;;;5.22;1.48;;;13.80;74.20;;;;;;2323188;53;20966;-82
2022/12/25 02:37:25;;;;;;;2.83;1.25;;;13.80;74.10;;;;;;2323053;53;20983;-83
2022/12/25 02:41:00;;;;;;;3.90;1.80;;;13.70;73.90;;;;;;2560838;53;20971;-83
2022/12/25 03:07:20;;;;;;;4.22;0.90;;;13.60;74.20;;;;;;2561123;53;20943;-85
2022/12/25 03:13:19;;;;;;;2.12;0.82;;;13.50;74.20;;;;;;2561388;53;20947;-85
2022/12/25 03:18:30;;;;;;;1.85;0.70;;;13.50;74.20;;;;;;2561665;53;21031;-85
2022/12/25 03:31:10;;;;;;;1.90;0.70;;;13.50;74.30;;;;;;2528616;53;20961;-86
2022/12/25 04:36:30;;;;;;;1.98;0.88;;;13.40;74.60;;;;;;2529572;54;21226;-85
2022/12/25 04:38:57;;;;;;;3.25;1.30;;;13.40;74.50;;;;;;2296258;55;20952;-83
2022/12/25 04:41:23;;;;;;;2.08;1.05;;;13.40;74.60;;;;;;2529222;54;21027;-83
2022/12/25 04:43:50;;;;;;;2.42;1.10;;;13.50;74.60;;;;;;2296740;55;21072;-82
2022/12/25 04:46:16;;;;;;;3.28;1.20;;;13.40;74.40;;;;;;2529241;54;20940;-81
2022/12/25 04:48:43;;;;;;;2.95;1.40;;;13.50;74.50;;;;;;2296547;55;21020;-81
2022/12/25 04:51:11;;;;;;;2.03;0.80;;;13.40;74.50;;;;;;2295818;55;20971;-83
2022/12/25 04:53:38;;;;;;;2.35;1.00;;;13.50;74.60;;;;;;2529371;54;21999;-87
2022/12/25 04:56:04;;;;;;;2.30;1.10;;;13.30;74.20;;;;;;2528983;54;20984;-85
2022/12/25 04:58:32;;;;;;;2.60;1.00;;;13.50;74.40;;;;;;2297104;55;21064;-85
2022/12/25 05:01:00;;;;;;;2.80;0.90;;;13.50;74.40;;;;;;2522521;54;21000;-84
2022/12/25 05:03:27;;;;;;;3.30;1.20;;;13.30;74.80;;;;;;2530082;54;21000;-84
2022/12/25 05:05:53;;;;;;;4.20;1.23;;;13.30;74.20;;;;;;2296292;55;20964;-86
2022/12/25 05:08:20;;;;;;;1.85;0.82;;;13.30;74.10;;;;;;2529501;54;21023;-82
2022/12/25 05:10:47;;;;;;;2.17;0.93;;;13.50;74.30;;;;;;2296883;55;21091;-83
2022/12/25 05:13:14;;;;;;;2.35;1.00;;;13.60;74.40;;;;;;2529421;54;21306;-83
2022/12/25 05:15:41;;;;;;;2.37;1.00;;;13.50;74.20;;;;;;2296150;54;20973;-82
2022/12/25 05:18:07;;;;;;;2.90;1.20;;;13.60;74.60;;;;;;2310545;54;21038;-86
2022/12/25 05:20:33;;;;;;;2.65;0.90;;;13.50;74.20;;;;;;2562673;53;20959;-85
2022/12/25 05:23:03;;;;;;;1.80;0.90;;;13.30;74.00;;;;;;2561750;53;20975;-86
2022/12/25 05:25:30;;;;;;;2.60;0.95;;;13.50;74.20;;;;;;2324490;54;21019;-85
2022/12/25 05:27:56;;;;;;;2.10;1.00;;;13.40;74.10;;;;;;2322807;54;21784;-86
2022/12/25 05:30:25;;;;;;;2.30;1.10;;;13.50;74.10;;;;;;2561634;53;21041;-85
2022/12/25 05:32:52;;;;;;;2.12;0.90;;;13.30;74.10;;;;;;2562328;53;20951;-83
2022/12/25 05:35:19;;;;;;;3.85;1.67;;;13.50;74.20;;;;;;2323263;54;21051;-82
2022/12/25 05:37:45;;;;;;;2.70;1.12;;;13.40;74.20;;;;;;2562208;53;21670;-84
2022/12/25 05:40:12;;;;;;;2.97;1.00;;;13.40;74.20;;;;;;2322638;54;21067;-84
2022/12/25 05:42:38;;;;;;;2.45;1.00;;;13.40;74.20;;;;;;2561697;53;20995;-83
2022/12/25 05:45:05;;;;;;;2.60;0.90;;;13.50;74.10;;;;;;2560941;53;21054;-82
2022/12/25 05:47:33;;;;;;;3.22;1.33;;;13.40;74.10;;;;;;2560853;53;21281;-85
2022/12/25 05:49:59;;;;;;;1.95;0.85;;;13.50;73.90;;;;;;2560631;53;21547;-85
2022/12/25 05:52:30;;;;;;;3.03;1.20;;;13.40;74.80;;;;;;2561736;53;20948;-85
2022/12/25 05:54:56;;;;;;;2.67;1.02;;;13.40;74.00;;;;;;2561642;53;21713;-84
2022/12/25 05:57:23;;;;;;;2.60;1.10;;;13.50;74.10;;;;;;2561876;53;20975;-84
2022/12/25 05:59:50;;;;;;;3.35;1.40;;;13.40;74.00;;;;;;2323422;54;21991;-86
2022/12/25 06:02:16;;;;;;;3.50;1.58;;;13.40;74.10;;;;;;2560435;53;20924;-85
2022/12/25 06:04:42;;;;;;;3.95;1.67;;;13.40;74.10;;;;;;2323052;54;20947;-85
2022/12/25 06:07:10;;;;;;;3.62;2.05;;;13.40;74.20;;;;;;2560312;53;21082;-85
2022/12/25 06:09:36;;;;;;;4.00;1.73;;;13.40;74.20;;;;;;2323070;54;20974;-87
2022/12/25 06:12:03;;;;;;;3.60;1.73;;;13.40;74.20;;;;;;2561025;53;21046;-84
2022/12/25 06:14:29;;;;;;;4.93;2.10;;;13.40;74.10;;;;;;2323064;54;20963;-84
2022/12/25 06:16:56;;;;;;;5.10;2.05;;;13.40;74.10;;;;;;2561869;53;21058;-86
2022/12/25 06:19:22;;;;;;;3.83;1.90;;;13.40;74.20;;;;;;2529517;54;20982;-86
2022/12/25 06:22:00;;;;;;;3.30;1.70;;;13.40;74.20;;;;;;2322500;54;20982;-88
2022/12/25 06:24:31;;;;;;;4.18;1.52;;;13.40;74.20;;;;;;2561322;53;20975;-86
2022/12/25 06:27:01;;;;;;;2.85;1.30;;;13.40;73.90;;;;;;2528585;54;21039;-83
2022/12/25 06:29:27;;;;;;;3.78;1.90;;;13.40;74.00;;;;;;2561732;53;20999;-85
2022/12/25 06:31:57;;;;;;;3.05;1.30;;;13.40;74.00;;;;;;2561304;53;21031;-85
2022/12/25 06:34:25;;;;;;;3.55;1.85;;;13.30;73.90;;;;;;2543802;53;20983;-85
2022/12/25 06:36:54;;;;;;;3.15;1.52;;;13.30;74.00;;;;;;2311175;54;20986;-87
2022/12/25 06:39:24;;;;;;;2.85;1.45;;;13.30;73.90;;;;;;2530095;54;20963;-85
2022/12/25 06:41:51;;;;;;;3.65;1.50;;;13.30;73.70;;;;;;2561630;53;21667;-86
2022/12/25 06:44:21;;;;;;;3.55;1.60;;;13.30;73.60;;;;;;2561863;53;20963;-85
2022/12/25 06:46:47;;;;;;;4.10;1.95;;;13.30;73.60;;;;;;2323062;54;21050;-87
2022/12/25 06:49:14;;;;;;;3.83;2.05;;;13.10;73.30;;;;;;2560754;53;20974;-85
2022/12/25 06:51:40;;;;;;;4.20;2.10;;;13.20;73.70;;;;;;2322956;54;21094;-85
2022/12/25 06:54:07;;;;;;;4.53;2.17;;;13.20;73.60;;;;;;2549761;53;21174;-87
2022/12/25 06:56:40;;;;;;;4.50;2.42;;;13.20;73.70;;;;;;2542692;53;20955;-85
2022/12/25 06:59:08;;;;;;;6.32;2.90;;;13.10;73.90;;;;;;2560777;53;21179;-85
2022/12/25 07:01:37;;;;;;;3.95;2.15;;;13.20;74.10;;;;;;2564926;53;21011;-85
2022/12/25 07:04:05;;;;;;;5.40;2.37;;;13.20;74.20;;;;;;2322547;54;20986;-86
2022/12/25 07:06:32;;;;;;;5.43;2.60;;;13.00;74.10;;;;;;2561080;53;21600;-85
2022/12/25 07:08:58;;;;;;;4.05;2.05;;;13.30;74.30;;;;;;2560744;53;21023;-86
2022/12/25 07:11:25;;;;;;;5.03;2.58;;;13.20;74.20;;;;;;2561267;53;21531;-85
2022/12/25 07:13:51;;;;;;;5.35;2.42;;;13.20;74.20;;;;;;2322849;54;21046;-87
2022/12/25 07:16:20;;;;;;;5.07;2.22;;;13.30;74.30;;;;;;2560882;53;21031;-87
2022/12/25 07:18:47;;;;;;;3.58;1.85;;;13.20;74.30;;;;;;2561493;53;21876;-85
2022/12/25 07:21:15;;;;;;;3.85;1.85;;;13.20;74.20;;;;;;2560519;53;20931;-87
2022/12/25 07:23:43;;;;;;;3.20;1.42;;;13.20;74.40;;;;;;2559279;53;20967;-85
2022/12/25 07:26:10;;;;;;;2.87;1.17;;;13.30;74.40;;;;;;2561061;53;21015;-87
2022/12/25 07:28:38;;;;;;;3.78;1.37;;;13.30;74.40;;;;;;2561528;53;21054;-85
2022/12/25 07:31:14;;;;;;;3.35;1.37;;;13.40;74.20;;;;;;2560680;53;20975;-86
2022/12/25 07:33:41;;;;;;;4.18;1.40;;;13.30;74.90;;;;;;2322566;54;20997;-85
2022/12/25 07:36:09;;;;;;;3.47;1.45;;;13.20;73.80;;;;;;2560678;53;20963;-87
2022/12/25 07:38:36;;;;;;;3.62;1.55;;;13.30;73.90;;;;;;2561654;53;20951;-87
2022/12/25 07:41:07;;;;;;;3.00;1.33;;;13.20;73.80;;;;;;2321924;54;21034;-85
2022/12/25 07:43:34;;;;;;;3.65;1.75;;;13.20;73.70;;;;;;2561409;53;22117;-84
2022/12/25 07:46:01;;;;;;;2.80;1.30;;;13.30;73.50;;;;;;2560139;53;21007;-85
2022/12/25 07:48:29;;;;;;;2.87;1.40;;;13.20;73.30;;;;;;2560031;53;21032;-87
2022/12/25 07:51:01;;;;;;;5.07;1.48;;;13.10;73.20;;;;;;2322145;54;20959;-86
2022/12/25 07:53:28;;;;;;;3.28;1.35;;;13.20;73.30;;;;;;2321975;54;20982;-87
2022/12/25 07:56:02;;;;;;;2.72;1.33;;;13.10;73.10;;;;;;2561268;53;21042;-85
2022/12/25 07:58:29;;;;;;;3.15;1.55;;;13.20;73.10;;;;;;2321781;54;21755;-85
2022/12/25 08:01:15;;;;;;;3.50;1.42;;;13.10;72.80;;;;;;2322940;54;21030;-84
2022/12/25 08:03:41;;;;;;;3.15;1.50;;;13.00;72.80;;;;;;2561570;53;20990;-86
2022/12/25 08:06:09;;;;;;;3.55;1.67;;;13.00;72.70;;;;;;2561223;53;21002;-84
2022/12/25 08:08:36;;;;;;;4.55;2.20;;;12.90;72.70;;;;;;2530547;54;20923;-85
2022/12/25 08:11:03;;;;;;;5.00;2.60;;;12.90;73.00;;;;;;2560948;53;21018;-85
2022/12/25 08:13:31;;;;;;;6.07;2.67;;;12.80;72.70;;;;;;2561045;53;20932;-84
2022/12/25 08:15:59;;;;;;;4.78;2.50;;;12.80;72.90;;;;;;2528126;54;20959;-87
2022/12/25 08:18:29;;;;;;;4.90;2.40;;;12.80;73.00;;;;;;2321492;54;21054;-87
2022/12/25 08:21:14;;;;;;;3.87;2.33;;;12.70;73.10;;;;;;2541121;54;20970;-87
2022/12/25 08:24:18;;;;;;;;;;;;;;;;;;;;;
2022/12/25 08:28:19;;;;;;;2.85;1.50;;;12.70;72.80;;;;;;2423919;56;21007;-86
2022/12/25 08:32:42;;;;;;;3.62;1.58;;;12.60;73.00;;;;;;2424469;56;21084;-84
2022/12/25 08:35:38;;;;;;;3.67;1.87;;;12.70;72.50;;;;;;2408878;56;21008;-84
2022/12/25 08:38:09;;;;;;;3.60;2.30;;;12.60;73.30;;;;;;2445201;55;21081;-86
2022/12/25 08:40:35;;;;;;;8.00;4.35;;;12.70;73.40;;;;;;2418604;56;21140;-86
2022/12/25 08:43:18;;;;;;;8.10;4.80;;;12.70;73.50;;;;;;2417914;56;21291;-86
2022/12/25 08:45:53;;;;;;;6.15;3.55;;;12.70;73.90;;;;;;2371340;57;21159;-85
2022/12/25 08:48:20;;;;;;;5.93;3.53;;;12.70;73.80;;;;;;2389902;57;21175;-85
2022/12/25 08:50:48;;;;;;;4.47;2.70;;;12.80;73.90;;;;;;2186250;56;20969;-87
2022/12/25 08:53:14;;;;;;;4.35;2.30;;;12.70;74.20;;;;;;2295141;55;21025;-87
2022/12/25 08:55:41;;;;;;;4.85;2.70;;;12.70;74.20;;;;;;2527568;54;21387;-86
2022/12/25 08:58:08;;;;;;;4.53;2.12;;;12.70;74.20;;;;;;2524101;54;21190;-84
2022/12/25 09:00:35;;;;;;;4.80;2.50;;;12.70;74.30;;;;;;2523324;54;21066;-85
2022/12/25 09:03:02;;;;;;;4.25;2.65;;;12.70;74.40;;;;;;2293927;54;20962;-85
2022/12/25 09:05:28;;;;;;;5.62;3.08;;;12.70;74.50;;;;;;2552774;53;21550;-86
2022/12/25 09:07:58;;;;;;;4.75;2.80;;;12.80;74.70;;;;;;2526976;54;20974;-84
2022/12/25 09:10:24;;;;;;;3.80;2.40;;;12.80;74.80;;;;;;2529459;54;20933;-86
2022/12/25 09:12:50;;;;;;;4.37;1.92;;;12.80;75.00;;;;;;2294502;54;20966;-88
2022/12/25 09:15:17;;;;;;;4.12;1.92;;;12.80;75.20;;;;;;2293865;54;21128;-86
2022/12/25 09:17:44;;;;;;;3.83;2.10;;;12.80;75.30;;;;;;2296084;54;20976;-86
2022/12/25 09:20:11;;;;;;;5.50;1.98;;;12.90;75.60;;;;;;2300730;54;20973;-85
2022/12/25 09:22:38;;;;;;;4.03;2.03;;;12.90;75.70;;;;;;2529634;54;21085;-84
2022/12/25 09:25:04;;;;;;;4.10;2.10;;;12.90;75.80;;;;;;2531276;54;20957;-84
2022/12/25 09:27:31;;;;;;;5.47;1.85;;;12.90;75.90;;;;;;2296486;54;21647;-85
2022/12/25 09:29:57;;;;;;;3.60;1.92;;;13.10;76.20;;;;;;2295483;54;21461;-85
2022/12/25 09:32:25;;;;;;;4.05;1.95;;;13.00;76.20;;;;;;2295677;54;21420;-86
2022/12/25 09:34:51;;;;;;;4.68;1.87;;;13.10;76.30;;;;;;2528709;54;21113;-86
2022/12/25 09:37:17;;;;;;;5.43;2.15;;;13.10;76.30;;;;;;2526753;54;20969;-87
2022/12/25 09:39:43;;;;;;;4.00;2.30;;;13.20;76.50;;;;;;2528548;54;21053;-85
2022/12/25 09:42:30;;;;;;;5.03;2.50;;;13.20;76.60;;;;;;2527334;54;21160;-87
2022/12/25 09:45:44;;;;;;;4.35;2.20;;;13.30;76.40;;;;;;2529190;54;21089;-85
2022/12/25 09:48:13;;;;;;;;;;;13.30;76.60;;;;;;2530430;54;21030;-86
2022/12/25 09:52:34;;;;;;;3.62;2.00;;;13.40;75.80;;;;;;2527393;54;20085;-85
2022/12/25 09:55:17;;;;;;;3.50;1.67;;;13.50;76.00;;;;;;2293140;55;21105;-85
2022/12/25 09:57:55;;;;;;;5.25;2.03;;;13.60;76.80;;;;;;2527094;54;21037;-85
2022/12/25 10:00:29;;;;;;;3.78;1.85;;;13.60;77.10;;;;;;2562064;53;20990;-85
2022/12/25 10:06:50;;;;;;;4.50;2.00;;;13.60;77.20;;;;;;2308353;53;20977;-85
2022/12/25 10:09:35;;;;;;;4.68;2.20;;;13.80;76.60;;;;;;2321812;53;21038;-86
2022/12/25 10:12:34;;;;;;;5.82;3.40;;;13.90;77.20;;;;;;2322710;53;20935;-85
2022/12/25 10:15:28;;;;;;;6.85;4.03;;;14.00;77.30;;;;;;2321609;53;21461;-85
2022/12/25 10:18:24;;;;;;;4.70;3.00;;;14.00;77.50;;;;;;2300997;55;20911;-85
2022/12/25 10:20:55;;;;;;;5.07;2.60;;;14.10;77.70;;;;;;2562464;53;20992;-85
2022/12/25 10:23:44;;;;;;;4.37;2.58;;;14.10;77.80;;;;;;2317957;54;20943;-85
2022/12/25 10:26:14;;;;;;;4.68;2.40;;;14.30;78.00;;;;;;2561073;53;20995;-84
2022/12/25 10:28:43;;;;;;;5.00;2.80;;;14.30;77.90;;;;;;2321033;54;20962;-85
2022/12/25 10:31:19;;;;;;;4.15;2.42;;;14.40;78.10;;;;;;2559993;53;22254;-86
2022/12/25 10:33:46;;;;;;;4.75;2.67;;;14.50;77.90;;;;;;2560623;53;20974;-84
2022/12/25 10:36:14;;;;;;;5.75;3.45;;;14.50;78.10;;;;;;2319945;54;21049;-85
2022/12/25 10:38:40;;;;;;;5.50;3.22;;;14.60;78.20;;;;;;2560283;53;20971;-84
2022/12/25 10:41:24;;;;;;;4.65;2.55;;;14.60;77.90;;;;;;2559378;53;21034;-86
2022/12/25 10:43:53;;;;;;;4.15;2.42;;;14.70;77.50;;;;;;2321192;54;20947;-86
2022/12/25 10:46:19;;;;;;;4.25;2.17;;;14.80;77.80;;;;;;2559759;53;21218;-86
2022/12/25 10:49:04;;;;;;;3.55;2.00;;;14.90;77.80;;;;;;2560189;53;20971;-84
2022/12/25 10:51:40;;;;;;;4.20;2.17;;;14.90;77.30;;;;;;2560082;53;20970;-85
2022/12/25 10:54:30;;;;;;;5.43;2.25;;;14.90;77.60;;;;;;2559662;53;20931;-85
2022/12/25 10:57:11;;;;;;;4.50;2.20;;;15.00;77.30;;;;;;2560169;53;20951;-84
2022/12/25 10:59:46;;;;;;;4.57;2.35;;;14.90;77.40;;;;;;2560156;53;21035;-85
2022/12/25 11:02:19;;;;;;;4.40;2.65;;;15.10;77.40;;;;;;2559630;53;21123;-83
2022/12/25 11:04:45;;;;;;;4.18;2.40;;;15.10;77.60;;;;;;2560377;53;20987;-84
2022/12/25 11:07:23;;;;;;;4.47;2.40;;;15.20;77.60;;;;;;2320560;54;21038;-84
2022/12/25 11:10:00;;;;;;;6.65;2.53;;;15.20;77.30;;;;;;2320626;54;21401;-85
2022/12/25 11:12:32;;;;;;;3.35;2.20;;;15.30;77.40;;;;;;2319956;54;20970;-85
2022/12/25 11:15:06;;;;;;;3.83;2.42;;;15.30;77.80;;;;;;2560202;53;21608;-84
2022/12/25 11:17:34;;;;;;;5.07;2.42;;;15.40;77.80;;;;;;2320558;54;20974;-85
2022/12/25 11:20:01;;;;;;;4.30;2.22;;;15.40;77.90;;;;;;2560102;53;21912;-83
2022/12/25 11:22:28;;;;;;;4.32;2.33;;;15.50;77.80;;;;;;2296253;55;21009;-84
2022/12/25 11:24:55;;;;;;;3.72;2.03;;;15.50;77.80;;;;;;2320311;54;21027;-84
2022/12/25 11:27:23;;;;;;;4.35;2.25;;;15.60;77.80;;;;;;2559396;53;20999;-84
2022/12/25 11:29:57;;;;;;;4.65;2.35;;;15.70;77.70;;;;;;2320481;54;21051;-85
2022/12/25 11:32:37;;;;;;;5.43;2.37;;;15.70;77.70;;;;;;2560593;53;21117;-85
2022/12/25 11:35:09;;;;;;;4.68;2.00;;;15.70;77.20;;;;;;2561102;53;21084;-84
2022/12/25 11:37:44;;;;;;;3.50;1.87;;;15.80;77.80;;;;;;2562568;53;20951;-86
2022/12/25 11:40:28;;;;;;;4.95;2.37;;;15.80;77.70;;;;;;2563049;53;20987;-85
2022/12/25 11:43:44;;;;;;;4.22;1.80;;;15.90;77.30;;;;;;2311961;55;20991;-83
2022/12/25 11:46:23;;;;;;;3.33;1.98;;;15.90;76.70;;;;;;2362007;54;1330986;-85
2022/12/25 11:48:56;;;;;;;3.65;1.83;;;16.00;77.70;;;;;;2559896;54;21094;-84
2022/12/25 11:51:24;;;;;;;3.35;1.70;;;16.00;77.40;;;;;;2320409;55;21052;-84
2022/12/25 11:53:58;;;;;;;4.90;2.67;;;16.00;77.40;;;;;;2562116;54;20938;-83
2022/12/25 11:56:26;;;;;;;4.25;2.25;;;16.10;77.40;;;;;;2316369;54;20979;-85
2022/12/25 11:59:07;;;;;;;4.20;2.15;;;16.10;77.40;;;;;;2562615;53;20995;-84
2022/12/25 12:01:44;;;;;;;3.50;1.98;;;16.10;76.90;;;;;;2562244;53;20955;-84
2022/12/25 12:04:25;;;;;;;3.53;2.30;;;16.10;77.40;;;;;;2533021;53;20963;-82
2022/12/25 12:07:03;;;;;;;3.80;2.00;;;16.20;77.20;;;;;;2522489;53;21030;-82
2022/12/25 12:09:50;;;;;;;5.57;2.67;;;16.20;77.30;;;;;;2525484;54;21909;-83
2022/12/25 12:12:51;;;;;;;4.40;2.67;;;16.20;77.00;;;;;;2526029;54;21001;-82
2022/12/25 12:15:34;;;;;;;4.65;2.70;;;16.30;76.60;;;;;;2526994;54;20981;-82
2022/12/25 12:18:36;;;;;;;5.87;3.17;;;16.30;76.90;;;;;;2527333;54;20945;-81
2022/12/25 12:21:27;;;;;;;5.78;3.05;;;16.30;75.90;;;;;;2527624;54;21861;-80
2022/12/25 12:24:15;;;;;;;4.50;2.60;;;16.30;76.10;;;;;;2294325;55;21076;-81
2022/12/25 12:26:42;;;;;;;3.72;2.17;;;16.30;76.30;;;;;;2527368;54;21378;-82
2022/12/25 12:29:25;;;;;;;4.85;2.33;;;16.30;77.30;;;;;;2526945;54;21352;-81
2022/12/25 12:31:52;;;;;;;5.22;2.28;;;16.30;76.80;;;;;;2295204;55;21004;-81
2022/12/25 12:34:24;;;;;;;3.45;2.05;;;16.40;77.50;;;;;;2530297;54;21005;-81
2022/12/25 12:36:52;;;;;;;5.18;2.53;;;16.40;77.40;;;;;;2528091;54;20882;-81
2022/12/25 12:39:25;;;;;;;4.10;2.33;;;16.50;77.80;;;;;;2294200;55;21048;-82
2022/12/25 12:41:51;;;;;;;;;;;16.50;77.70;;;;;;2297346;55;21482;-81
2022/12/25 12:44:17;;;;;;;3.75;2.25;;;16.50;76.40;;;;;;2527178;54;20073;-82
2022/12/25 12:46:51;;;;;;;3.90;2.25;;;16.60;77.90;;;;;;2527206;54;20969;-83
2022/12/25 12:49:26;;;;;;;4.68;2.58;;;16.60;77.40;;;;;;2527267;54;20937;-81
2022/12/25 12:52:51;;;;;;;3.70;1.95;;;16.60;77.10;;;;;;2527341;54;21022;-81
2022/12/25 12:55:27;;;;;;;3.70;2.05;;;16.60;76.60;;;;;;2294239;55;20964;-81
2022/12/25 12:58:00;;;;;;;3.37;1.75;;;16.70;76.80;;;;;;2528740;54;21001;-81
2022/12/25 13:00:42;;;;;;;4.87;2.20;;;16.70;77.00;;;;;;2321775;54;21298;-82
2022/12/25 13:03:31;;;;;;;3.45;2.00;;;16.70;77.20;;;;;;2320417;54;20970;-80
2022/12/25 13:07:42;;;;;;;3.53;1.85;;;16.70;77.00;;;;;;2560369;53;21720;-80
2022/12/25 13:12:03;;;;;;;3.03;1.73;;;16.70;77.30;;;;;;2561444;53;20927;-81
2022/12/25 13:14:30;;;;;;;4.25;2.22;;;16.80;76.10;;;;;;2321323;54;20939;-82
2022/12/25 13:16:57;;;;;;;4.10;2.17;;;16.80;77.40;;;;;;2529748;54;20949;-82
2022/12/25 13:19:25;;;;;;;3.80;2.17;;;16.90;77.40;;;;;;2529721;54;21709;-82
2022/12/25 13:21:56;;;;;;;3.58;2.20;;;16.90;77.30;;;;;;2528905;54;20915;-81
2022/12/25 13:24:32;;;;;;;4.57;2.05;;;16.90;77.00;;;;;;2294751;55;21032;-81
2022/12/25 13:26:59;;;;;;;4.35;2.15;;;16.90;77.20;;;;;;2529928;54;21004;-81
2022/12/25 13:29:32;;;;;;;5.78;2.67;;;16.80;77.00;;;;;;2528302;54;20956;-85
2022/12/25 13:31:59;;;;;;;5.20;2.92;;;16.90;77.00;;;;;;2528985;54;20958;-82
2022/12/25 13:34:46;;;;;;;4.40;2.47;;;17.00;77.30;;;;;;2528980;54;21443;-84
2022/12/25 13:37:16;;;;;;;4.47;2.37;;;17.00;76.40;;;;;;2529423;54;21028;-84
2022/12/25 13:40:23;;;;;;;4.12;2.42;;;17.00;77.10;;;;;;2528900;54;20926;-83
2022/12/25 13:42:49;;;;;;;3.67;2.10;;;17.00;75.70;;;;;;2529318;54;20934;-83
2022/12/25 13:45:25;;;;;;;3.25;1.77;;;17.10;77.00;;;;;;2529337;54;21357;-84
2022/12/25 13:47:51;;;;;;;3.95;2.00;;;17.10;76.60;;;;;;2529224;54;20941;-84
2022/12/25 13:50:28;;;;;;;3.00;1.60;;;17.10;76.90;;;;;;2294708;55;20926;-84
2022/12/25 13:53:10;;;;;;;3.33;1.80;;;17.20;76.60;;;;;;2296242;54;20949;-84
2022/12/25 13:55:36;;;;;;;4.45;1.77;;;17.20;76.20;;;;;;2300408;54;21004;-84
2022/12/25 13:58:04;;;;;;;3.90;1.60;;;17.10;76.70;;;;;;2292108;55;20918;-84
2022/12/25 14:00:49;;;;;;;2.90;1.40;;;17.20;76.60;;;;;;2297577;55;20974;-84
2022/12/25 14:03:36;;;;;;;3.47;1.35;;;17.20;75.90;;;;;;2530438;54;20953;-83
2022/12/25 14:06:05;;;;;;;3.12;1.50;;;17.20;76.60;;;;;;2527913;54;21130;-84
2022/12/25 14:08:32;;;;;;;1.95;0.88;;;17.20;76.60;;;;;;2295029;55;21952;-84
2022/12/25 14:11:02;;;;;;;4.05;1.20;;;17.20;76.60;;;;;;2554239;53;21078;-85
2022/12/25 14:13:28;;;;;;;2.58;0.90;;;17.20;76.40;;;;;;2528054;54;21141;-84
2022/12/25 14:15:56;;;;;;;3.22;1.10;;;17.30;76.60;;;;;;2527369;54;21021;-84
2022/12/25 14:18:23;;;;;;;2.08;1.00;;;17.30;76.40;;;;;;2293837;54;22075;-85
2022/12/25 14:21:48;;;;;;;2.97;1.33;;;17.30;76.20;;;;;;2293976;54;20994;-84
2022/12/25 14:24:14;;;;;;;2.70;1.20;;;17.30;74.70;;;;;;2296031;54;21489;-84
2022/12/25 14:26:40;;;;;;;2.92;1.30;;;17.30;76.00;;;;;;2560054;53;21047;-85
2022/12/25 14:29:16;;;;;;;3.00;1.55;;;17.30;75.90;;;;;;2560062;53;21027;-83
2022/12/25 14:31:44;;;;;;;3.67;1.40;;;17.30;75.20;;;;;;2559865;53;21038;-83
2022/12/25 14:34:14;;;;;;;3.83;1.55;;;17.30;75.90;;;;;;2558149;53;21059;-84
2022/12/25 14:36:40;;;;;;;2.40;1.40;;;17.30;75.80;;;;;;2558725;53;20967;-83
2022/12/25 14:39:18;;;;;;;2.70;1.30;;;17.30;75.80;;;;;;2318897;54;21158;-81
2022/12/25 14:41:51;;;;;;;2.37;1.02;;;17.30;75.70;;;;;;2558186;53;21047;-82
2022/12/25 14:44:39;;;;;;;3.70;1.83;;;17.30;75.20;;;;;;2558720;53;20926;-83
2022/12/25 14:47:18;;;;;;;3.95;1.77;;;17.30;74.80;;;;;;2319547;54;21015;-82
2022/12/25 14:49:45;;;;;;;2.70;1.35;;;17.30;74.30;;;;;;2319546;54;20959;-83
2022/12/25 14:52:24;;;;;;;3.08;1.15;;;17.20;75.10;;;;;;2557887;53;21424;-83
2022/12/25 14:54:54;;;;;;;3.05;1.27;;;17.20;74.30;;;;;;2548287;53;20991;-82
2022/12/25 14:57:30;;;;;;;2.30;0.98;;;17.20;74.70;;;;;;2542795;53;20951;-83
2022/12/25 14:59:59;;;;;;;2.45;1.10;;;17.20;74.10;;;;;;2321593;54;20915;-82
2022/12/25 15:02:25;;;;;;;2.50;0.80;;;17.20;74.70;;;;;;2560986;53;21011;-82
2022/12/25 15:04:52;;;;;;;2.30;1.00;;;17.20;74.80;;;;;;2560786;53;20907;-82
2022/12/25 15:07:29;;;;;;;2.92;1.37;;;17.20;74.80;;;;;;2560727;53;20900;-83
2022/12/25 15:09:55;;;;;;;3.20;1.40;;;17.20;74.00;;;;;;2560705;53;20931;-83
2022/12/25 15:12:36;;;;;;;3.05;1.48;;;17.10;74.60;;;;;;2560217;53;20970;-83
2022/12/25 15:15:02;;;;;;;3.08;1.50;;;17.10;74.60;;;;;;2320575;54;21566;-83